AirNav   Air Wisconsin Up To $57,000 Bonus
 
 475 users online  

1MN0 Wetherbee Farm Airport
Tenney, Minnesota, USA

GOING TO TENNEY?


FAA INFORMATION EFFECTIVE 07 NOVEMBER 2019

Location

FAA Identifier: 1MN0
Lat/Long: 46-02-36.8530N 096-32-46.2520W
46-02.614217N 096-32.770867W
46.0435703,-96.5461811
(estimated)
Elevation: 980 ft. / 299 m (estimated)
Variation: 06E (1985)
From city: 4 miles W of TENNEY, MN
Time zone: UTC -6 (UTC -5 during Daylight Saving Time)
Zip code: 56522

Airport Operations

Airport use: Private use. Permission required prior to landing
Activation date: 12/1975
Control tower: no
ARTCC: MINNEAPOLIS CENTER
FSS: PRINCETON FLIGHT SERVICE STATION
Attendance: UNATNDD
Wind indicator: yes
Segmented circle: no

Airport Communications

WX AWOS-3 at BWP (12 nm N): 127.875 (701-642-9800)
WX AWOS-3 at ETH (16 nm S): 118.775 (320-563-4975)

Nearby radio navigation aids

VOR radial/distance  VOR name  Freq  Var
FFMr223/21.9FERGUS FALLS VOR/DME110.4005E
MOXr315/37.5MORRIS VOR/DME109.6005E

Airport Services

Runway Information

Runway 17/35

Dimensions: 2600 x 80 ft. / 792 x 24 m
Surface: turf
RUNWAY 17  RUNWAY 35
Traffic pattern: leftleft
Obstructions: 35 ft. pline, 1200 ft. from runway
HIGHWAY 1200' FM THR.
none

Airport Ownership and Management from official FAA records

Ownership: Privately-owned
Owner: ROBERT WETHERBEE
2045 STATE HWY 55
FAIRMOUNT, ND 58030
Phone 218-479-5759
Manager: STEVE WETHERBEE
2045 STATE HWY 55
FAIRMOUNT, ND 58030
Phone 218-479-5917

Airport Operational Statistics

Aircraft based on the field: 2
Single engine airplanes: 2
    

Additional Remarks

DO NOT CHART PER MN DEPT OF TRANSPORTATION.
FOR CD CTC MINNEAPOLIS ARTCC AT 651-463-5588.

Instrument Procedures

There are no published instrument procedures at 1MN0.

Some nearby airports with instrument procedures:

KBWP - Harry Stern Airport (12 nm N)
KETH - Wheaton Municipal Airport (16 nm S)
KFFM - Fergus Falls Municipal Airport-Einar Mickelson Field (22 nm NE)
Y63 - Elbow Lake Municipal - Pride of the Prairie Airport (24 nm E)
8D3 - Sisseton Municipal Airport (29 nm SW)
 
Loc | Ops | Rwys | IFR | FBO | Links
Com | Nav | Svcs | Stats | Notes
Area around 1MN0 (Wetherbee Farm Airport)
 
Road maps at: MapQuest Bing Google
 
Aerial photo
No photo
 
Sectional chart

 
Airport distance calculator
Flying to Wetherbee Farm Airport? Find the distance to fly.

From to 1MN0

Sunrise and sunset
Times for 19-Nov-2019
 Local
(UTC-6)
 Zulu
(UTC)
Morning civil twilight07:0113:01
Sunrise07:3313:33
Sunset16:5022:50
Evening civil twilight17:2323:23

Current date and time
Zulu (UTC)  19-Nov-2019 11:02:40
Local (UTC-6)  19-Nov-2019 05:02:40
 
METAR
KBWP 
12nm N 
191055Z AUTO 29008KT 10SM 01/M01 A2972 RMK AO1
KFFM 
21nm NE 
191057Z AUTO 33005KT 10SM BKN024 OVC045 01/00 A2970 RMK AO2
KY63 
23nm E 
191056Z AUTO 29006KT 10SM BKN032 00/00 A2970 RMK AO2 T00001005
TAF
KAXN 
49nm E 
190535Z 1906/2006 28009KT 5SM BR VCSH OVC008 FM191200 30010KT P6SM OVC004 FM191800 30010KT P6SM BKN010
NOTAMs
Click for the latest NOTAMs
NOTAMs are issued by the DoD/FAA and will open in a separate window not controlled by AirNav.

 

 
 

Would you like to see your business listed on this page?

 If your business provides an interesting product or service to pilots, flight crews, aircraft, or users of the Wetherbee Farm Airport, you should consider listing it here.  To start the listing process, click on the button below
 
Add a business
 

Other Pages about Wetherbee Farm Airport

Update a link
 
Copyright © AirNav, LLC. All rights reserved. Privacy Policy  Contact